createdAt,value
2023-02-03T00:02:07.210Z,100283.88
2023-02-03T00:04:53.862Z,100325.59
2023-02-03T00:07:40.516Z,100296.94
2023-02-03T00:10:27.368Z,100308.38
2023-02-03T00:13:14.379Z,100323.25
2023-02-03T00:16:01.967Z,100312.59
2023-02-03T00:18:48.552Z,100325.94
2023-02-03T00:21:35.086Z,100292.50
2023-02-03T00:24:23.394Z,100321.50
2023-02-03T00:27:09.638Z,100303.34
2023-02-03T00:29:56.051Z,100294.59
2023-02-03T00:32:42.725Z,100291.09
2023-02-03T00:35:31.607Z,100312.69
2023-02-03T00:38:17.863Z,100303.19
2023-02-03T00:41:04.329Z,100292.63
2023-02-03T00:43:50.673Z,100327.47
2023-02-03T00:46:37.054Z,100292.44
2023-02-03T00:49:23.443Z,100323.88
2023-02-03T00:52:09.632Z,100290.53
2023-02-03T00:54:58.036Z,100309.91
2023-02-03T00:57:44.279Z,100325.34
2023-02-03T01:00:30.429Z,100325.34
2023-02-03T01:03:16.731Z,100337.47
2023-02-03T01:06:14.185Z,100313.00
2023-02-03T01:09:02.990Z,100332.44
2023-02-03T01:11:49.675Z,100284.78
2023-02-03T01:14:35.900Z,100291.19
2023-02-03T01:17:24.283Z,100303.28
2023-02-03T01:20:16.412Z,100310.13
2023-02-03T01:23:02.644Z,100278.75
2023-02-03T01:25:49.442Z,100266.38
2023-02-03T01:28:36.498Z,100306.84
2023-02-03T01:31:29.629Z,100250.13
2023-02-03T01:34:17.050Z,100299.16
2023-02-03T01:37:03.740Z,100293.06
2023-02-03T01:39:49.851Z,100275.22
2023-02-03T01:42:36.223Z,100301.47
2023-02-03T01:45:22.505Z,100303.25
2023-02-03T01:48:09.145Z,100304.16
2023-02-03T01:50:55.474Z,100296.25
2023-02-03T01:53:42.169Z,100306.72
2023-02-03T01:56:32.499Z,100304.28
2023-02-03T01:59:20.547Z,100286.88
2023-02-03T02:02:07.566Z,100292.16
2023-02-03T02:05:24.400Z,100286.94
2023-02-03T02:08:12.886Z,100263.44
2023-02-03T02:11:00.943Z,100248.91
2023-02-03T02:13:50.322Z,100264.56
2023-02-03T02:17:00.652Z,100249.84
2023-02-03T02:19:58.541Z,100263.31
2023-02-03T02:23:03.812Z,100233.53
2023-02-03T02:26:19.785Z,100230.06
2023-02-03T02:29:51.283Z,100254.81
2023-02-03T02:33:07.299Z,100208.84
2023-02-03T02:36:07.793Z,100208.50
2023-02-03T02:39:05.872Z,100202.34
2023-02-03T02:42:06.547Z,100193.00
2023-02-03T02:44:59.063Z,100211.94
2023-02-03T02:47:45.657Z,100203.28
2023-02-03T02:50:38.917Z,100252.97
2023-02-03T02:53:29.003Z,100244.47
2023-02-03T02:56:17.497Z,100241.81
2023-02-03T02:59:06.228Z,100232.25
2023-02-03T03:01:52.629Z,100200.25
2023-02-03T03:04:40.781Z,100212.28
2023-02-03T03:07:29.042Z,100212.41
2023-02-03T03:10:22.115Z,100200.13
2023-02-03T03:13:13.384Z,100189.03
2023-02-03T03:16:05.084Z,100206.75
2023-02-03T03:18:58.725Z,100194.41
2023-02-03T03:21:50.940Z,100207.56
2023-02-03T03:24:46.097Z,100223.69
2023-02-03T03:27:40.316Z,100214.84
2023-02-03T03:30:33.090Z,100209.72
2023-02-03T03:33:21.533Z,100245.44
2023-02-03T03:36:14.370Z,100222.78
2023-02-03T03:39:30.327Z,100243.50
2023-02-03T03:42:41.881Z,100270.72
2023-02-03T03:45:49.401Z,100277.72
2023-02-03T03:48:48.042Z,100292.34
2023-02-03T03:51:41.038Z,100272.38
2023-02-03T03:54:30.221Z,100289.66
2023-02-03T03:57:26.003Z,100298.28
2023-02-03T04:00:19.116Z,100305.09
2023-02-03T04:03:15.913Z,100265.72
2023-02-03T04:06:02.577Z,100289.13
2023-02-03T04:08:48.784Z,100243.41
2023-02-03T04:11:53.891Z,100290.97
2023-02-03T04:14:40.859Z,100286.72
2023-02-03T04:17:27.398Z,100272.75
2023-02-03T04:20:14.346Z,100295.38
2023-02-03T04:23:00.740Z,100285.09
2023-02-03T04:25:47.002Z,100267.00
2023-02-03T04:28:33.477Z,100280.09
2023-02-03T04:31:19.760Z,100258.00
2023-02-03T04:34:06.579Z,100239.94
2023-02-03T04:36:53.022Z,100269.63
2023-02-03T04:39:38.970Z,100279.50
2023-02-03T04:42:25.783Z,100242.06
2023-02-03T04:45:12.799Z,100277.94
2023-02-03T04:47:58.880Z,100279.53
2023-02-03T04:50:45.319Z,100259.91
2023-02-03T04:53:32.257Z,100248.72
2023-02-03T04:56:18.716Z,100260.78
2023-02-03T04:59:05.244Z,100230.91
2023-02-03T05:01:51.712Z,100247.44
2023-02-03T05:04:37.977Z,100233.88
2023-02-03T05:07:24.226Z,100272.25
2023-02-03T05:10:10.876Z,100270.88
2023-02-03T05:12:57.203Z,100260.13
2023-02-03T05:15:43.455Z,100288.88
2023-02-03T05:18:29.727Z,100261.03
2023-02-03T05:21:16.483Z,100283.44
2023-02-03T05:24:06.774Z,100277.59
2023-02-03T05:26:53.069Z,100273.06
2023-02-03T05:29:39.345Z,100278.41
2023-02-03T05:32:25.910Z,100263.41
2023-02-03T05:35:12.070Z,100295.38
2023-02-03T05:37:59.473Z,100274.50
2023-02-03T05:41:09.801Z,100281.22
2023-02-03T05:43:56.051Z,100292.34
2023-02-03T05:46:42.308Z,100274.22
2023-02-03T05:49:28.912Z,100245.72
2023-02-03T05:52:15.148Z,100267.56
2023-02-03T05:55:01.369Z,100238.13
2023-02-03T05:57:47.633Z,100228.69
2023-02-03T06:00:34.203Z,100253.22
2023-02-03T06:03:20.723Z,100200.84
2023-02-03T06:06:07.186Z,100252.50
2023-02-03T06:08:56.971Z,100218.44
2023-02-03T06:11:43.196Z,100230.84
2023-02-03T06:14:29.960Z,100215.59
2023-02-03T06:17:16.064Z,100239.13
2023-02-03T06:20:07.527Z,100265.06
2023-02-03T06:22:53.689Z,100231.41
2023-02-03T06:25:40.200Z,100256.84
2023-02-03T06:28:27.176Z,100248.53
2023-02-03T06:31:13.751Z,100244.31
2023-02-03T06:34:02.461Z,100233.97
2023-02-03T06:36:49.213Z,100217.84
2023-02-03T06:39:35.754Z,100246.44
2023-02-03T06:42:21.983Z,100232.56
2023-02-03T06:45:08.859Z,100214.41
2023-02-03T06:47:54.968Z,100209.50
2023-02-03T06:50:41.981Z,100214.41
2023-02-03T06:53:28.320Z,100244.19
2023-02-03T06:56:14.541Z,100223.81
2023-02-03T06:59:01.044Z,100226.38
2023-02-03T07:01:47.551Z,100242.41
2023-02-03T07:04:33.814Z,100187.63
2023-02-03T07:07:20.356Z,100238.56
2023-02-03T07:10:07.384Z,100214.75
2023-02-03T07:12:53.684Z,100178.03
2023-02-03T07:15:39.960Z,100235.94
2023-02-03T07:21:32.585Z,100162.56
2023-02-03T07:24:18.811Z,100169.69
2023-02-03T07:27:05.178Z,100230.44
2023-02-03T07:29:51.329Z,100190.44
2023-02-03T07:32:37.820Z,100203.56
2023-02-03T07:35:24.322Z,100209.72
2023-02-03T07:38:10.672Z,100230.38
2023-02-03T07:40:56.981Z,100195.16
2023-02-03T07:43:43.244Z,100272.19
2023-02-03T07:46:29.899Z,100271.41
2023-02-03T07:49:16.752Z,100207.56
2023-02-03T07:52:03.220Z,100260.03
2023-02-03T07:54:49.473Z,100224.13
2023-02-03T07:57:37.281Z,100294.09
2023-02-03T08:00:24.060Z,100275.38
2023-02-03T08:03:10.653Z,100299.44
2023-02-03T08:05:57.065Z,100291.81
2023-02-03T08:08:43.851Z,100303.09
2023-02-03T08:11:30.234Z,100306.38
2023-02-03T08:14:16.503Z,100282.56
2023-02-03T08:17:02.777Z,100285.63
2023-02-03T08:19:49.302Z,100264.53
2023-02-03T08:22:35.741Z,100302.91
2023-02-03T08:25:22.795Z,100303.25
2023-02-03T08:28:09.303Z,100306.19
2023-02-03T08:30:56.569Z,100307.81
2023-02-03T08:33:43.094Z,100291.00
2023-02-03T08:36:29.386Z,100295.00
2023-02-03T08:39:15.973Z,100300.94
2023-02-03T08:42:04.049Z,100320.44
2023-02-03T08:44:50.706Z,100292.53
2023-02-03T08:47:37.377Z,100323.53
2023-02-03T08:50:24.296Z,100312.75
2023-02-03T08:53:11.141Z,100239.69
2023-02-03T08:55:57.680Z,100299.13
2023-02-03T08:58:43.972Z,100279.16
2023-02-03T09:01:30.900Z,100270.84
2023-02-03T09:04:19.332Z,100294.22
2023-02-03T09:07:05.787Z,100301.19
2023-02-03T09:09:52.133Z,100278.25
2023-02-03T09:12:38.286Z,100263.25
2023-02-03T09:15:24.724Z,100276.56
2023-02-03T09:18:10.851Z,100289.28
2023-02-03T09:21:13.889Z,100262.44
2023-02-03T09:24:07.867Z,100293.78
2023-02-03T09:26:55.882Z,100284.13
2023-02-03T09:29:42.143Z,100285.00
2023-02-03T09:32:28.578Z,100303.16
2023-02-03T09:35:15.448Z,100260.41
2023-02-03T09:38:02.093Z,100312.47
2023-02-03T09:41:09.352Z,100244.59
2023-02-03T09:44:15.670Z,100304.22
2023-02-03T09:47:09.806Z,100294.03
2023-02-03T09:50:00.358Z,100270.06
2023-02-03T09:52:47.793Z,100285.00
2023-02-03T09:55:39.509Z,100261.50
2023-02-03T09:58:29.063Z,100283.88
2023-02-03T10:01:17.333Z,100251.06
2023-02-03T10:04:27.791Z,100240.59
2023-02-03T10:07:25.547Z,100254.06
2023-02-03T10:10:26.362Z,100291.00
2023-02-03T10:13:38.711Z,100289.22
2023-02-03T10:16:38.543Z,100282.81
2023-02-03T10:19:48.335Z,100300.13
2023-02-03T10:22:50.761Z,100273.91
2023-02-03T10:25:43.911Z,100269.81
2023-02-03T10:28:40.108Z,100305.72
2023-02-03T10:31:28.655Z,100269.63
2023-02-03T10:34:17.499Z,100305.16
2023-02-03T10:37:13.779Z,100290.34
2023-02-03T10:40:01.585Z,100250.41
2023-02-03T10:43:07.697Z,100274.47
2023-02-03T10:45:54.137Z,100238.16
2023-02-03T10:48:40.723Z,100203.41
2023-02-03T10:51:31.859Z,100230.28
2023-02-03T10:54:36.384Z,100271.56
2023-02-03T10:57:23.161Z,100239.56
2023-02-03T11:00:29.118Z,100267.69
2023-02-03T11:03:26.541Z,100253.28
2023-02-03T11:06:15.948Z,100240.75
2023-02-03T11:09:02.897Z,100255.75
2023-02-03T11:12:19.325Z,100253.13
2023-02-03T11:15:06.072Z,100219.72
2023-02-03T11:17:52.360Z,100177.50
2023-02-03T11:20:38.525Z,100227.75
2023-02-03T11:23:24.977Z,100214.63
2023-02-03T11:26:17.903Z,100166.75
2023-02-03T11:29:08.083Z,100225.38
2023-02-03T11:31:57.466Z,100218.59
2023-02-03T11:35:02.111Z,100220.56
2023-02-03T11:37:51.516Z,100194.22
2023-02-03T11:40:39.950Z,100190.25
2023-02-03T11:43:29.043Z,100179.31
2023-02-03T11:46:16.099Z,100191.78
2023-02-03T11:49:34.183Z,100183.19
2023-02-03T11:52:32.477Z,100163.41
2023-02-03T11:55:54.630Z,100158.41
2023-02-03T11:58:47.155Z,100177.16
2023-02-03T12:01:55.575Z,100202.19
2023-02-03T12:04:59.164Z,100181.56
2023-02-03T12:08:18.307Z,100183.63
2023-02-03T12:11:19.500Z,100165.00
2023-02-03T12:14:15.182Z,100183.63
2023-02-03T12:17:25.971Z,100177.81
2023-02-03T12:20:31.503Z,100170.72
2023-02-03T12:23:28.360Z,100155.84
2023-02-03T12:26:28.550Z,100197.38
2023-02-03T12:29:21.758Z,100144.41
2023-02-03T12:32:26.968Z,100186.63
2023-02-03T12:35:21.490Z,100161.88
2023-02-03T12:38:18.513Z,100173.63
2023-02-03T12:41:12.155Z,100186.72
2023-02-03T12:44:05.653Z,100168.38
2023-02-03T12:47:12.649Z,100165.75
2023-02-03T12:50:27.588Z,100143.44
2023-02-03T12:53:24.836Z,100056.84
2023-02-03T12:56:27.721Z,100119.41
2023-02-03T12:59:22.394Z,100081.69
2023-02-03T13:02:26.137Z,100107.03
2023-02-03T13:05:39.125Z,100085.41
2023-02-03T13:08:37.018Z,100081.09
2023-02-03T13:11:33.582Z,100109.72
2023-02-03T13:14:44.177Z,100109.44
2023-02-03T13:17:43.764Z,100051.69
2023-02-03T13:20:35.911Z,100103.34
2023-02-03T13:23:23.586Z,100105.94
2023-02-03T13:26:28.062Z,100099.88
2023-02-03T13:29:42.287Z,100110.22
2023-02-03T13:32:57.360Z,100057.13
2023-02-03T13:36:02.209Z,100097.22
2023-02-03T13:39:10.067Z,100093.66
2023-02-03T13:42:13.897Z,100063.16
2023-02-03T13:45:24.076Z,99977.09
2023-02-03T13:48:28.184Z,100058.09
2023-02-03T13:51:22.234Z,100083.28
2023-02-03T13:54:16.847Z,100075.22
2023-02-03T13:57:06.791Z,100068.00
2023-02-03T13:59:53.127Z,100077.44
2023-02-03T14:02:45.662Z,100100.22
2023-02-03T14:05:50.853Z,100095.00
2023-02-03T14:08:37.017Z,100092.34
2023-02-03T14:11:35.764Z,100101.00
2023-02-03T14:14:22.305Z,100114.81
2023-02-03T14:17:49.123Z,100116.44
2023-02-03T14:20:42.095Z,100123.41
2023-02-03T14:23:39.241Z,100109.72
2023-02-03T14:26:39.775Z,100087.25
2023-02-03T14:29:32.398Z,100093.47
2023-02-03T14:32:18.858Z,100073.03
2023-02-03T14:35:17.253Z,100064.53
2023-02-03T14:38:07.263Z,100090.66
2023-02-03T14:41:03.021Z,100096.81
2023-02-03T14:44:09.512Z,100074.03
2023-02-03T14:46:59.714Z,100082.69
2023-02-03T14:49:59.258Z,100106.47
2023-02-03T14:53:07.460Z,100107.19
2023-02-03T14:56:10.125Z,100099.56
2023-02-03T14:59:04.723Z,100079.34
2023-02-03T15:01:50.912Z,100112.56
2023-02-03T15:04:37.353Z,100097.03
2023-02-03T15:07:36.146Z,100101.41
2023-02-03T15:10:23.756Z,100115.97
2023-02-03T15:13:31.229Z,100113.44
2023-02-03T15:16:23.609Z,100122.81
2023-02-03T15:19:20.612Z,100141.94
2023-02-03T15:22:28.112Z,100131.47
2023-02-03T15:25:19.004Z,100145.28
2023-02-03T15:28:13.949Z,100143.50
2023-02-03T15:31:00.477Z,100162.38
2023-02-03T15:33:49.956Z,100153.59
2023-02-03T15:36:48.482Z,100136.19
2023-02-03T15:39:39.519Z,100130.94
2023-02-03T15:42:48.560Z,100137.06
2023-02-03T15:46:02.560Z,100179.53
2023-02-03T15:48:54.711Z,100148.13
2023-02-03T15:51:51.965Z,100147.16
2023-02-03T15:54:43.091Z,100139.78
2023-02-03T15:57:34.456Z,100148.03
2023-02-03T16:00:26.408Z,100174.72
2023-02-03T16:03:21.416Z,100169.59
2023-02-03T16:06:30.306Z,100184.28
2023-02-03T16:09:28.794Z,100184.94
2023-02-03T16:12:16.829Z,100188.25
2023-02-03T16:15:04.160Z,100168.06
2023-02-03T16:17:59.502Z,100171.34
2023-02-03T16:20:51.150Z,100141.53
2023-02-03T16:23:38.240Z,100138.91
2023-02-03T16:26:27.314Z,100177.41
2023-02-03T16:29:33.342Z,100175.63
2023-02-03T16:32:39.826Z,100135.59
2023-02-03T16:35:45.269Z,100125.34
2023-02-03T16:38:50.141Z,100148.13
2023-02-03T16:41:56.146Z,100142.03
2023-02-03T16:45:01.268Z,100136.19
2023-02-03T16:48:06.246Z,100142.81
2023-02-03T16:50:59.718Z,100150.88
2023-02-03T16:53:48.230Z,100156.19
2023-02-03T16:56:35.034Z,100167.31
2023-02-03T16:59:21.225Z,100156.03
2023-02-03T17:02:08.023Z,100180.50
2023-02-03T17:04:54.698Z,100178.84
2023-02-03T17:07:41.206Z,100172.69
2023-02-03T17:10:27.512Z,100159.75
2023-02-03T17:13:15.948Z,100181.59
2023-02-03T17:16:08.629Z,100161.66
2023-02-03T17:18:54.902Z,100165.44
2023-02-03T17:21:41.097Z,100160.16
2023-02-03T17:24:27.630Z,100165.44
2023-02-03T17:27:14.251Z,100160.97
2023-02-03T17:30:00.686Z,100197.56
2023-02-03T17:32:47.027Z,100177.84
2023-02-03T17:35:33.291Z,100158.72
2023-02-03T17:38:19.943Z,100164.25
2023-02-03T17:53:30.707Z,100185.41
2023-02-03T17:56:19.282Z,100192.34
2023-02-03T17:59:05.823Z,100195.78
2023-02-03T18:01:53.219Z,100187.81
2023-02-03T18:04:39.465Z,100187.25
2023-02-03T18:07:25.702Z,100190.91
2023-02-03T18:10:12.149Z,100172.59
2023-02-03T18:12:58.323Z,100187.31
2023-02-03T18:15:44.499Z,100166.25
2023-02-03T18:18:30.998Z,100162.66
2023-02-03T18:21:17.452Z,100196.50
2023-02-03T18:24:05.739Z,100182.97
2023-02-03T18:26:52.250Z,100221.34
2023-02-03T18:29:40.798Z,100190.63
2023-02-03T18:32:27.077Z,100200.09
2023-02-03T18:35:16.759Z,100214.28
2023-02-03T18:38:03.400Z,100202.13
2023-02-03T18:40:49.575Z,100196.59
2023-02-03T18:43:36.227Z,100210.28
2023-02-03T18:46:27.617Z,100223.38
2023-02-03T18:49:14.148Z,100218.25
2023-02-03T18:52:00.479Z,100192.00
2023-02-03T18:54:46.942Z,100213.16
2023-02-03T18:57:33.106Z,100181.53
2023-02-03T19:00:20.106Z,100200.19
2023-02-03T19:03:07.702Z,100203.09
2023-02-03T19:05:54.558Z,100170.41
2023-02-03T19:08:41.025Z,100169.78
2023-02-03T19:11:27.425Z,100187.41
2023-02-03T19:14:14.571Z,100187.50
2023-02-03T19:17:01.697Z,100202.97
2023-02-03T19:19:48.378Z,100186.66
2023-02-03T19:22:34.874Z,100206.59
2023-02-03T19:25:21.090Z,100200.66
2023-02-03T19:28:14.155Z,100215.00
2023-02-03T19:31:10.637Z,100182.34
2023-02-03T19:33:58.966Z,100180.19
2023-02-03T19:36:47.073Z,100215.81
2023-02-03T19:39:33.708Z,100228.72
2023-02-03T19:42:19.919Z,100216.19
2023-02-03T19:45:07.007Z,100224.28
2023-02-03T19:47:53.432Z,100237.13
2023-02-03T19:50:40.798Z,100226.50
2023-02-03T19:53:27.177Z,100248.28
2023-02-03T19:56:13.548Z,100244.16
2023-02-03T19:58:59.685Z,100235.22
2023-02-03T20:01:45.974Z,100242.41
2023-02-03T20:04:33.920Z,100229.09
2023-02-03T20:07:20.472Z,100214.59
2023-02-03T20:10:07.338Z,100185.75
2023-02-03T20:12:55.083Z,100238.47
2023-02-03T20:15:41.951Z,100260.13
2023-02-03T20:18:28.175Z,100220.19
2023-02-03T20:21:14.369Z,100222.81
2023-02-03T20:24:00.848Z,100237.88
2023-02-03T20:26:47.192Z,100230.66
2023-02-03T20:29:33.488Z,100254.41
2023-02-03T20:32:20.511Z,100201.09
2023-02-03T20:35:07.240Z,100254.38
2023-02-03T20:37:53.690Z,100249.50
2023-02-03T20:40:39.869Z,100242.53
2023-02-03T20:43:27.864Z,100247.00
2023-02-03T20:46:18.338Z,100255.63
2023-02-03T20:49:04.431Z,100249.63
2023-02-03T20:51:50.938Z,100241.66
2023-02-03T20:54:37.236Z,100253.78
2023-02-03T20:57:23.402Z,100243.22
2023-02-03T21:00:19.003Z,100258.78
2023-02-03T21:03:24.176Z,100258.94
2023-02-03T21:06:18.930Z,100230.22
2023-02-03T21:09:20.027Z,100234.66
2023-02-03T21:12:13.464Z,100253.91
2023-02-03T21:14:59.939Z,100259.34
2023-02-03T21:17:46.529Z,100263.03
2023-02-03T21:20:33.249Z,100254.19
2023-02-03T21:23:24.252Z,100225.44
2023-02-03T21:26:27.283Z,100276.63
2023-02-03T21:29:26.662Z,100263.03
2023-02-03T21:32:14.145Z,100247.22
2023-02-03T21:35:00.742Z,100252.50
2023-02-03T21:37:47.241Z,100273.59
2023-02-03T21:40:34.978Z,100253.41
2023-02-03T21:43:23.250Z,100278.75
2023-02-03T21:46:17.608Z,100279.69
2023-02-03T21:49:04.232Z,100236.09
2023-02-03T21:51:50.670Z,100260.16
2023-02-03T21:54:41.811Z,100221.88
2023-02-03T21:57:28.259Z,100262.69
2023-02-03T22:00:34.533Z,100264.31
2023-02-03T22:03:30.452Z,100245.78
2023-02-03T22:06:26.023Z,100265.69
2023-02-03T22:09:24.536Z,100264.88
2023-02-03T22:12:11.049Z,100239.22
2023-02-03T22:14:57.235Z,100261.25
2023-02-03T22:17:43.764Z,100256.19
2023-02-03T22:20:30.664Z,100250.88
2023-02-03T22:23:17.124Z,100286.25
2023-02-03T22:26:03.371Z,100286.25
2023-02-03T22:28:49.869Z,100249.09
2023-02-03T22:31:36.300Z,100279.53
2023-02-03T22:34:23.410Z,100299.09
2023-02-03T22:37:09.720Z,100299.75
2023-02-03T22:39:55.992Z,100307.22
2023-02-03T22:42:42.646Z,100308.81
2023-02-03T22:45:29.463Z,100314.16
2023-02-03T22:48:15.712Z,100294.88
2023-02-03T22:51:02.497Z,100345.31
2023-02-03T22:53:49.130Z,100306.13
2023-02-03T22:56:35.221Z,100291.50
2023-02-03T22:59:21.799Z,100330.50
2023-02-03T23:02:08.305Z,100302.47
2023-02-03T23:04:54.684Z,100320.72
2023-02-03T23:07:41.270Z,100333.78
2023-02-03T23:10:32.109Z,100338.13
2023-02-03T23:13:18.552Z,100315.28
2023-02-03T23:16:05.115Z,100305.72
2023-02-03T23:18:51.374Z,100321.97
2023-02-03T23:21:37.891Z,100344.84
2023-02-03T23:24:24.159Z,100316.19
2023-02-03T23:27:11.098Z,100327.66
2023-02-03T23:29:57.440Z,100317.03
2023-02-03T23:32:43.664Z,100327.31
2023-02-03T23:35:45.199Z,100349.66
2023-02-03T23:38:33.298Z,100315.69
2023-02-03T23:41:19.693Z,100344.50
2023-02-03T23:44:05.917Z,100300.88
2023-02-03T23:46:52.146Z,100333.09
2023-02-03T23:49:38.350Z,100332.19
2023-02-03T23:52:24.900Z,100331.88
2023-02-03T23:55:14.711Z,100316.41
2023-02-03T23:58:01.302Z,100334.16
